createdAt,value
2023-12-17T00:02:11.631Z,73.95
2023-12-17T00:04:41.389Z,72.94
2023-12-17T00:07:09.721Z,68.95
2023-12-17T00:09:38.041Z,67.80
2023-12-17T00:12:07.170Z,65.92
2023-12-17T00:14:35.765Z,67.80
2023-12-17T00:17:04.438Z,70.89
2023-12-17T00:19:35.860Z,66.18
2023-12-17T00:22:08.897Z,67.32
2023-12-17T00:24:40.306Z,67.54
2023-12-17T00:27:09.007Z,68.08
2023-12-17T00:29:46.602Z,66.31
2023-12-17T00:32:15.183Z,69.14
2023-12-17T00:34:46.952Z,67.96
2023-12-17T00:37:16.936Z,71.51
2023-12-17T00:39:51.552Z,67.95
2023-12-17T00:42:23.241Z,72.30
2023-12-17T00:44:51.909Z,69.39
2023-12-17T00:47:22.543Z,69.87
2023-12-17T00:49:56.828Z,69.88
2023-12-17T00:52:26.506Z,69.05
2023-12-17T00:54:57.885Z,66.24
2023-12-17T00:57:27.118Z,71.40
2023-12-17T01:00:06.547Z,73.06
2023-12-17T01:02:37.378Z,71.78
2023-12-17T01:05:06.684Z,72.07
2023-12-17T01:07:37.150Z,68.79
2023-12-17T01:10:09.578Z,69.03
2023-12-17T01:12:41.760Z,67.46
2023-12-17T01:15:12.246Z,70.60
2023-12-17T01:17:44.638Z,69.70
2023-12-17T01:20:14.619Z,67.03
2023-12-17T01:22:47.336Z,67.62
2023-12-17T01:25:20.876Z,71.21
2023-12-17T01:27:49.172Z,72.16
2023-12-17T01:30:20.799Z,70.84
2023-12-17T01:32:52.063Z,70.46
2023-12-17T01:35:20.501Z,70.63
2023-12-17T01:37:50.111Z,72.42
2023-12-17T01:40:21.524Z,72.92
2023-12-17T01:42:53.696Z,70.77
2023-12-17T01:45:22.149Z,72.97
2023-12-17T01:47:53.115Z,71.64
2023-12-17T01:50:26.562Z,74.87
2023-12-17T01:53:00.817Z,71.83
2023-12-17T01:55:32.668Z,69.31
2023-12-17T01:58:04.864Z,68.12
2023-12-17T02:00:33.532Z,65.12
2023-12-17T02:03:02.614Z,71.26
2023-12-17T02:05:41.769Z,70.43
2023-12-17T02:08:11.734Z,71.18
2023-12-17T02:10:43.076Z,71.32
2023-12-17T02:13:11.823Z,69.59
2023-12-17T02:15:43.167Z,66.81
2023-12-17T02:18:11.625Z,66.68
2023-12-17T02:20:40.499Z,65.17
2023-12-17T02:23:13.313Z,66.15
2023-12-17T02:25:44.808Z,67.29
2023-12-17T02:28:16.672Z,68.22
2023-12-17T02:30:53.939Z,68.70
2023-12-17T02:33:44.320Z,71.17
2023-12-17T02:36:13.027Z,72.17
2023-12-17T02:38:42.720Z,75.36
2023-12-17T02:41:10.999Z,72.20
2023-12-17T02:43:42.172Z,74.11
2023-12-17T02:46:10.534Z,73.95
2023-12-17T02:48:42.708Z,71.85
2023-12-17T02:51:11.426Z,70.44
2023-12-17T02:53:44.179Z,74.63
2023-12-17T02:56:12.749Z,74.15
2023-12-17T02:58:52.834Z,71.15
2023-12-17T03:01:24.150Z,70.80
2023-12-17T03:03:52.582Z,68.60
2023-12-17T03:06:21.019Z,69.52
2023-12-17T03:08:53.999Z,66.63
2023-12-17T03:11:22.330Z,72.43
2023-12-17T03:13:59.342Z,72.35
2023-12-17T03:16:33.068Z,67.95
2023-12-17T03:19:01.505Z,69.18
2023-12-17T03:21:35.620Z,69.84
2023-12-17T03:24:06.975Z,71.87
2023-12-17T03:26:35.567Z,74.31
2023-12-17T03:29:06.601Z,74.78
2023-12-17T03:31:40.837Z,74.79
2023-12-17T03:34:09.249Z,73.11
2023-12-17T03:36:37.681Z,69.86
2023-12-17T03:39:11.164Z,69.65
2023-12-17T03:41:42.160Z,69.28
2023-12-17T03:44:36.834Z,72.27
2023-12-17T03:47:08.100Z,70.38
2023-12-17T03:49:36.416Z,69.13
2023-12-17T03:52:09.196Z,72.67
2023-12-17T03:54:46.847Z,74.07
2023-12-17T03:57:15.298Z,70.97
2023-12-17T03:59:45.872Z,72.94
2023-12-17T04:02:17.317Z,72.26
2023-12-17T04:04:53.021Z,73.79
2023-12-17T04:07:24.332Z,71.74
2023-12-17T04:09:57.562Z,71.41
2023-12-17T04:12:26.234Z,73.45
2023-12-17T04:14:54.666Z,73.14
2023-12-17T04:17:23.047Z,67.96
2023-12-17T04:19:54.473Z,73.15
2023-12-17T04:22:26.148Z,71.44
2023-12-17T04:24:54.428Z,71.86
2023-12-17T04:27:26.967Z,71.89
2023-12-17T04:29:55.372Z,68.96
2023-12-17T04:32:25.853Z,67.58
2023-12-17T04:34:56.703Z,70.62
2023-12-17T04:37:25.327Z,69.28
2023-12-17T04:39:53.603Z,68.64
2023-12-17T04:42:26.802Z,71.24
2023-12-17T04:44:55.103Z,71.29
2023-12-17T04:47:25.906Z,74.36
2023-12-17T04:49:57.364Z,72.61
2023-12-17T04:52:25.677Z,73.91
2023-12-17T04:54:53.977Z,72.13
2023-12-17T04:57:22.304Z,73.67
2023-12-17T04:59:52.093Z,72.27
2023-12-17T05:02:29.669Z,71.99
2023-12-17T05:04:57.995Z,74.50
2023-12-17T05:07:29.709Z,76.46
2023-12-17T05:09:58.566Z,77.05
2023-12-17T05:12:30.022Z,72.25
2023-12-17T05:15:02.489Z,71.26
2023-12-17T05:17:33.327Z,72.25
2023-12-17T05:20:01.940Z,71.32
2023-12-17T05:22:30.219Z,69.54
2023-12-17T05:24:58.550Z,70.42
2023-12-17T05:27:27.184Z,68.04
2023-12-17T05:30:03.216Z,72.24
2023-12-17T05:32:35.712Z,70.83
2023-12-17T05:35:04.289Z,73.52
2023-12-17T05:37:35.417Z,75.25
2023-12-17T05:40:04.796Z,74.74
2023-12-17T05:42:35.948Z,73.05
2023-12-17T05:45:04.936Z,69.31
2023-12-17T05:47:41.324Z,68.17
2023-12-17T05:50:16.194Z,70.17
2023-12-17T05:52:45.025Z,73.13
2023-12-17T05:55:21.189Z,69.75
2023-12-17T05:57:51.234Z,70.89
2023-12-17T06:00:20.334Z,70.84
2023-12-17T06:02:52.981Z,66.70
2023-12-17T06:05:23.734Z,71.60
2023-12-17T06:07:52.053Z,70.17
2023-12-17T06:10:26.208Z,69.58
2023-12-17T06:12:54.496Z,69.78
2023-12-17T06:15:28.965Z,75.45
2023-12-17T06:17:58.701Z,71.07
2023-12-17T06:20:29.687Z,71.26
2023-12-17T06:23:01.197Z,72.96
2023-12-17T06:25:35.393Z,70.42
2023-12-17T06:28:05.826Z,68.67
2023-12-17T06:30:43.326Z,66.61
2023-12-17T06:33:13.381Z,68.17
2023-12-17T06:35:41.808Z,73.95
2023-12-17T06:38:10.352Z,73.85
2023-12-17T06:40:38.697Z,74.45
2023-12-17T06:43:07.361Z,74.54
2023-12-17T06:45:35.699Z,71.09
2023-12-17T06:48:04.442Z,70.32
2023-12-17T06:50:34.106Z,73.60
2023-12-17T06:53:05.531Z,68.48
2023-12-17T06:55:36.879Z,71.30
2023-12-17T06:58:07.360Z,70.56
2023-12-17T07:00:39.025Z,73.27
2023-12-17T07:03:10.298Z,74.77
2023-12-17T07:05:43.434Z,75.34
2023-12-17T07:08:11.897Z,72.52
2023-12-17T07:10:40.275Z,76.69
2023-12-17T07:13:08.594Z,71.86
2023-12-17T07:15:44.907Z,70.46
2023-12-17T07:18:13.491Z,73.22
2023-12-17T07:20:44.040Z,70.99
2023-12-17T07:23:14.817Z,69.92
2023-12-17T07:25:43.091Z,71.28
2023-12-17T07:28:11.844Z,73.35
2023-12-17T07:30:43.453Z,72.92
2023-12-17T07:33:11.888Z,72.74
2023-12-17T07:35:40.294Z,72.07
2023-12-17T07:38:09.918Z,70.34
2023-12-17T07:40:50.253Z,73.35
2023-12-17T07:43:21.410Z,67.97
2023-12-17T07:45:58.244Z,73.38
2023-12-17T07:48:26.615Z,73.16
2023-12-17T07:50:58.386Z,69.68
2023-12-17T07:53:33.185Z,69.80
2023-12-17T07:56:11.597Z,72.74
2023-12-17T07:58:48.766Z,71.21
2023-12-17T08:01:19.845Z,72.29
2023-12-17T08:03:49.202Z,75.65
2023-12-17T08:06:20.656Z,74.17
2023-12-17T08:08:53.502Z,68.81
2023-12-17T08:11:22.271Z,73.59
2023-12-17T08:13:51.241Z,71.08
2023-12-17T08:16:19.605Z,71.57
2023-12-17T08:18:47.990Z,69.42
2023-12-17T08:21:18.703Z,71.46
2023-12-17T08:23:47.174Z,67.40
2023-12-17T08:26:20.441Z,69.51
2023-12-17T08:28:57.868Z,69.35
2023-12-17T08:31:26.223Z,72.57
2023-12-17T08:33:57.529Z,69.78
2023-12-17T08:36:26.812Z,69.22
2023-12-17T08:38:55.234Z,72.71
2023-12-17T08:41:27.129Z,73.99
2023-12-17T08:43:57.865Z,74.12
2023-12-17T08:46:26.134Z,75.41
2023-12-17T08:48:59.061Z,73.61
2023-12-17T08:51:33.023Z,70.82
2023-12-17T08:54:25.629Z,70.36
2023-12-17T08:56:58.538Z,70.87
2023-12-17T08:59:26.839Z,66.78
2023-12-17T09:01:55.139Z,65.91
2023-12-17T09:04:26.443Z,69.40
2023-12-17T09:06:54.768Z,68.89
2023-12-17T09:09:25.342Z,69.24
2023-12-17T09:11:58.724Z,65.28
2023-12-17T09:14:27.103Z,64.48
2023-12-17T09:17:02.594Z,64.75
2023-12-17T09:19:37.224Z,65.34
2023-12-17T09:22:14.553Z,71.02
2023-12-17T09:24:47.762Z,69.25
2023-12-17T09:27:19.074Z,68.34
2023-12-17T09:29:47.522Z,67.57
2023-12-17T09:32:23.056Z,66.45
2023-12-17T09:34:54.176Z,66.43
2023-12-17T09:37:25.315Z,65.67
2023-12-17T09:39:58.521Z,68.02
2023-12-17T09:42:28.357Z,68.17
2023-12-17T09:45:00.331Z,67.01
2023-12-17T09:47:31.529Z,64.94
2023-12-17T09:50:05.127Z,66.48
2023-12-17T09:52:37.345Z,64.54
2023-12-17T09:55:08.105Z,67.99
2023-12-17T09:57:41.346Z,69.69
2023-12-17T10:00:13.550Z,65.93
2023-12-17T10:02:42.186Z,64.71
2023-12-17T10:05:16.630Z,65.87
2023-12-17T10:07:45.972Z,72.41
2023-12-17T10:10:21.650Z,68.81
2023-12-17T10:12:52.272Z,72.96
2023-12-17T10:15:23.669Z,72.11
2023-12-17T10:17:55.297Z,72.50
2023-12-17T10:20:26.095Z,72.92
2023-12-17T10:23:04.636Z,73.80
2023-12-17T10:25:35.961Z,74.86
2023-12-17T10:28:11.488Z,74.60
2023-12-17T10:30:41.055Z,70.42
2023-12-17T10:33:12.242Z,68.06
2023-12-17T10:35:41.805Z,68.24
2023-12-17T10:38:12.098Z,70.38
2023-12-17T10:40:43.085Z,69.93
2023-12-17T10:43:15.787Z,70.74
2023-12-17T10:45:49.485Z,69.71
2023-12-17T10:48:20.731Z,69.50
2023-12-17T10:50:53.692Z,75.94
2023-12-17T10:53:50.669Z,70.44
2023-12-17T10:56:22.872Z,69.41
2023-12-17T10:58:59.512Z,69.49
2023-12-17T11:01:33.933Z,70.36
2023-12-17T11:04:03.238Z,67.19
2023-12-17T11:06:34.858Z,70.92
2023-12-17T11:09:10.097Z,73.38
2023-12-17T11:11:40.205Z,68.54
2023-12-17T11:14:15.774Z,69.14
2023-12-17T11:16:46.997Z,69.71
2023-12-17T11:19:25.636Z,72.62
2023-12-17T11:21:57.399Z,70.66
2023-12-17T11:24:26.002Z,73.22
2023-12-17T11:26:54.395Z,68.75
2023-12-17T11:29:40.215Z,71.17
2023-12-17T11:32:11.798Z,71.09
2023-12-17T11:34:40.969Z,72.11
2023-12-17T11:37:13.308Z,68.46
2023-12-17T11:39:45.808Z,70.13
2023-12-17T11:42:24.031Z,72.44
2023-12-17T11:44:54.500Z,67.60
2023-12-17T11:47:28.561Z,69.30
2023-12-17T11:50:01.770Z,65.82
2023-12-17T11:52:31.504Z,70.17
2023-12-17T11:55:04.163Z,68.87
2023-12-17T11:57:32.725Z,69.77
2023-12-17T12:00:02.394Z,71.20
2023-12-17T12:02:36.910Z,74.20
2023-12-17T12:05:06.038Z,74.79
2023-12-17T12:07:38.274Z,75.51
2023-12-17T12:10:11.576Z,71.62
2023-12-17T12:13:01.172Z,70.43
2023-12-17T12:15:33.514Z,73.22
2023-12-17T12:18:01.941Z,74.67
2023-12-17T12:20:39.102Z,71.19
2023-12-17T12:23:13.279Z,68.00
2023-12-17T12:25:41.755Z,65.71
2023-12-17T12:28:21.987Z,68.83
2023-12-17T12:31:10.944Z,69.41
2023-12-17T12:33:46.013Z,66.48
2023-12-17T12:36:20.913Z,65.50
2023-12-17T12:39:03.090Z,70.60
2023-12-17T12:41:32.228Z,67.20
2023-12-17T12:44:04.687Z,70.85
2023-12-17T12:46:37.701Z,66.55
2023-12-17T12:49:10.112Z,66.03
2023-12-17T12:51:38.957Z,65.56
2023-12-17T12:54:17.586Z,64.80
2023-12-17T12:56:49.122Z,64.02
2023-12-17T12:59:23.286Z,65.93
2023-12-17T13:02:01.172Z,67.89
2023-12-17T13:04:29.500Z,65.74
2023-12-17T13:07:07.380Z,66.76
2023-12-17T13:09:36.946Z,64.60
2023-12-17T13:12:08.516Z,64.24
2023-12-17T13:14:39.251Z,63.38
2023-12-17T13:17:09.613Z,68.78
2023-12-17T13:19:38.015Z,64.75
2023-12-17T13:22:06.660Z,63.16
2023-12-17T13:24:35.237Z,69.28
2023-12-17T13:27:03.796Z,64.60
2023-12-17T13:29:32.073Z,66.83
2023-12-17T13:32:00.365Z,67.59
2023-12-17T13:34:29.996Z,64.76
2023-12-17T13:39:38.308Z,68.45
2023-12-17T13:42:07.603Z,69.86
2023-12-17T13:44:36.225Z,68.76
2023-12-17T13:47:04.837Z,68.84
2023-12-17T13:49:38.001Z,70.65
2023-12-17T13:52:07.304Z,69.31
2023-12-17T13:54:42.164Z,68.73
2023-12-17T13:57:19.414Z,66.23
2023-12-17T13:59:50.874Z,67.32
2023-12-17T14:02:23.259Z,68.17
2023-12-17T14:04:59.164Z,66.92
2023-12-17T14:07:30.648Z,66.04
2023-12-17T14:10:01.651Z,64.18
2023-12-17T14:12:34.052Z,64.91
2023-12-17T14:15:07.602Z,66.76
2023-12-17T14:17:36.026Z,67.63
2023-12-17T14:20:14.242Z,67.10
2023-12-17T14:23:03.545Z,65.51
2023-12-17T14:25:39.343Z,68.40
2023-12-17T14:28:10.652Z,68.55
2023-12-17T14:30:39.114Z,68.43
2023-12-17T14:33:10.696Z,66.38
2023-12-17T14:35:40.420Z,67.99
2023-12-17T14:38:09.244Z,68.59
2023-12-17T14:40:40.055Z,69.83
2023-12-17T14:43:14.374Z,67.72
2023-12-17T14:45:45.836Z,66.42
2023-12-17T14:48:20.666Z,68.98
2023-12-17T14:50:50.405Z,67.50
2023-12-17T14:53:18.672Z,67.63
2023-12-17T14:55:50.396Z,67.86
2023-12-17T14:58:19.618Z,65.02
2023-12-17T15:00:49.373Z,64.75
2023-12-17T15:03:19.453Z,66.21
2023-12-17T15:05:52.510Z,64.31
2023-12-17T15:08:20.879Z,64.33
2023-12-17T15:10:49.286Z,65.62
2023-12-17T15:13:17.608Z,65.61
2023-12-17T15:15:46.120Z,64.19
2023-12-17T15:18:21.130Z,64.44
2023-12-17T15:20:49.582Z,65.42
2023-12-17T15:23:22.292Z,63.80
2023-12-17T15:25:55.569Z,63.79
2023-12-17T15:28:30.002Z,66.73
2023-12-17T15:31:01.439Z,64.66
2023-12-17T15:33:29.805Z,63.48
2023-12-17T15:36:01.203Z,63.50
2023-12-17T15:38:40.012Z,63.15
2023-12-17T15:41:21.231Z,62.62
2023-12-17T15:43:50.012Z,62.64
2023-12-17T15:46:25.715Z,63.57
2023-12-17T15:48:57.315Z,62.53
2023-12-17T15:51:26.888Z,64.87
2023-12-17T15:53:57.862Z,64.12
2023-12-17T15:56:26.532Z,64.22
2023-12-17T15:58:55.638Z,64.72
2023-12-17T16:01:27.029Z,66.38
2023-12-17T16:03:55.433Z,66.05
2023-12-17T16:06:24.169Z,65.65
2023-12-17T16:08:59.583Z,66.77
2023-12-17T16:11:27.875Z,66.27
2023-12-17T16:13:58.699Z,66.70
2023-12-17T16:16:27.312Z,65.48
2023-12-17T16:18:58.580Z,65.54
2023-12-17T16:21:26.994Z,67.14
2023-12-17T16:23:55.347Z,66.14
2023-12-17T16:26:25.016Z,66.91
2023-12-17T16:28:53.302Z,64.56
2023-12-17T16:31:25.423Z,64.92
2023-12-17T16:34:02.968Z,65.42
2023-12-17T16:36:42.661Z,64.38
2023-12-17T16:39:11.596Z,63.57
2023-12-17T16:41:47.800Z,65.62
2023-12-17T16:44:18.512Z,65.22
2023-12-17T16:46:46.786Z,64.00
2023-12-17T16:49:15.273Z,63.79
2023-12-17T16:51:46.727Z,66.83
2023-12-17T16:54:15.035Z,64.03
2023-12-17T16:56:49.133Z,63.52
2023-12-17T16:59:17.491Z,62.85
2023-12-17T17:01:54.852Z,65.06
2023-12-17T17:04:29.676Z,64.17
2023-12-17T17:06:58.128Z,65.14
2023-12-17T17:09:32.359Z,64.61
2023-12-17T17:12:02.157Z,65.38
2023-12-17T17:14:30.506Z,64.67
2023-12-17T17:17:06.125Z,65.20
2023-12-17T17:19:42.562Z,63.91
2023-12-17T17:22:12.683Z,63.96
2023-12-17T17:24:41.857Z,63.76
2023-12-17T17:27:11.555Z,62.71
2023-12-17T17:29:42.233Z,62.36
2023-12-17T17:32:25.626Z,62.17
2023-12-17T17:34:55.007Z,61.94
2023-12-17T17:37:26.528Z,61.71
2023-12-17T17:39:58.963Z,61.40
2023-12-17T17:42:28.792Z,61.41
2023-12-17T17:45:00.189Z,61.20
2023-12-17T17:47:30.042Z,61.25
2023-12-17T17:49:58.389Z,61.38
2023-12-17T17:52:35.616Z,61.33
2023-12-17T17:55:07.814Z,61.36
2023-12-17T17:57:39.193Z,61.51
2023-12-17T18:00:09.285Z,61.42
2023-12-17T18:02:43.126Z,61.33
2023-12-17T18:05:11.715Z,62.09
2023-12-17T18:07:46.137Z,61.82
2023-12-17T18:10:14.614Z,61.92
2023-12-17T18:12:47.596Z,62.07
2023-12-17T18:15:18.741Z,61.61
2023-12-17T18:17:50.128Z,61.31
2023-12-17T18:20:27.852Z,61.16
2023-12-17T18:22:56.252Z,61.35
2023-12-17T18:25:26.099Z,61.49
2023-12-17T18:27:58.706Z,61.69
2023-12-17T18:30:29.013Z,61.39
2023-12-17T18:32:57.907Z,61.36
2023-12-17T18:35:29.077Z,61.16
2023-12-17T18:37:57.415Z,63.79
2023-12-17T18:40:28.560Z,63.38
2023-12-17T18:43:01.088Z,62.29
2023-12-17T18:45:29.442Z,61.49
2023-12-17T18:47:59.168Z,62.28
2023-12-17T18:50:27.665Z,62.50
2023-12-17T18:52:58.986Z,62.03
2023-12-17T18:55:27.458Z,61.74
2023-12-17T18:57:59.866Z,61.48
2023-12-17T19:00:30.341Z,61.99
2023-12-17T19:03:01.842Z,61.63
2023-12-17T19:05:36.037Z,61.62
2023-12-17T19:08:04.608Z,61.78
2023-12-17T19:10:32.977Z,62.26
2023-12-17T19:13:02.632Z,63.26
2023-12-17T19:15:30.951Z,63.91
2023-12-17T19:17:59.281Z,63.37
2023-12-17T19:20:28.324Z,65.76
2023-12-17T19:22:59.647Z,66.83
2023-12-17T19:25:31.191Z,68.89
2023-12-17T19:28:03.994Z,69.34
2023-12-17T19:30:32.926Z,65.85
2023-12-17T19:33:05.742Z,64.74
2023-12-17T19:35:37.881Z,63.17
2023-12-17T19:38:06.380Z,63.87
2023-12-17T19:40:34.675Z,67.74
2023-12-17T19:43:04.469Z,66.26
2023-12-17T19:45:35.588Z,66.93
2023-12-17T19:48:04.109Z,69.02
2023-12-17T19:50:38.600Z,67.28
2023-12-17T19:53:07.089Z,64.84
2023-12-17T19:55:35.391Z,63.75
2023-12-17T19:58:07.933Z,62.77
2023-12-17T20:00:36.427Z,63.64
2023-12-17T20:03:05.179Z,69.94
2023-12-17T20:05:36.658Z,66.97
2023-12-17T20:08:09.334Z,66.91
2023-12-17T20:10:46.893Z,64.16
2023-12-17T20:13:16.595Z,65.06
2023-12-17T20:15:51.036Z,68.91
2023-12-17T20:18:26.800Z,68.31
2023-12-17T20:21:01.846Z,67.51
2023-12-17T20:23:30.721Z,65.63
2023-12-17T20:25:58.994Z,68.91
2023-12-17T20:28:28.926Z,70.89
2023-12-17T20:30:58.008Z,69.78
2023-12-17T20:33:28.116Z,65.87
2023-12-17T20:35:56.928Z,65.48
2023-12-17T20:38:25.254Z,63.84
2023-12-17T20:41:00.810Z,64.91
2023-12-17T20:43:39.020Z,65.75
2023-12-17T20:46:08.322Z,64.29
2023-12-17T20:48:39.524Z,64.70
2023-12-17T20:51:07.954Z,66.48
2023-12-17T20:53:36.298Z,66.63
2023-12-17T20:56:07.810Z,69.48
2023-12-17T20:58:43.677Z,67.26
2023-12-17T21:01:12.017Z,67.83
2023-12-17T21:03:40.408Z,69.51
2023-12-17T21:06:08.924Z,65.19
2023-12-17T21:08:40.306Z,66.90
2023-12-17T21:11:10.343Z,64.26
2023-12-17T21:13:40.444Z,63.58
2023-12-17T21:16:09.022Z,63.49
2023-12-17T21:18:37.562Z,63.18
2023-12-17T21:21:06.482Z,64.48
2023-12-17T21:23:39.500Z,63.29
2023-12-17T21:26:10.825Z,62.07
2023-12-17T21:28:40.475Z,64.47
2023-12-17T21:31:08.825Z,62.48
2023-12-17T21:33:37.789Z,63.40
2023-12-17T21:36:09.342Z,62.17
2023-12-17T21:38:37.697Z,62.08
2023-12-17T21:41:06.124Z,64.31
2023-12-17T21:43:37.465Z,66.88
2023-12-17T21:46:08.329Z,66.75
2023-12-17T21:48:39.714Z,64.50
2023-12-17T21:51:08.628Z,64.51
2023-12-17T21:53:36.978Z,67.88
2023-12-17T21:56:08.929Z,69.17
2023-12-17T21:58:37.550Z,67.70
2023-12-17T22:01:10.146Z,67.73
2023-12-17T22:03:40.305Z,68.37
2023-12-17T22:06:08.857Z,65.12
2023-12-17T22:08:37.455Z,63.18
2023-12-17T22:11:05.958Z,65.28
2023-12-17T22:16:18.449Z,65.00
2023-12-17T22:18:46.854Z,63.26
2023-12-17T22:21:22.496Z,63.46
2023-12-17T22:23:53.889Z,62.23
2023-12-17T22:26:25.112Z,62.29
2023-12-17T22:28:53.611Z,63.29
2023-12-17T22:31:26.416Z,62.59
2023-12-17T22:33:57.920Z,63.59
2023-12-17T22:36:28.512Z,64.17
2023-12-17T22:38:56.819Z,64.37
2023-12-17T22:41:25.120Z,63.47
2023-12-17T22:43:59.535Z,62.29
2023-12-17T22:46:29.220Z,64.59
2023-12-17T22:48:57.603Z,62.23
2023-12-17T22:51:26.624Z,65.07
2023-12-17T22:53:54.919Z,64.15
2023-12-17T22:56:23.184Z,66.09
2023-12-17T22:58:54.573Z,63.70
2023-12-17T23:01:30.342Z,62.43
2023-12-17T23:03:58.747Z,61.91
2023-12-17T23:06:27.515Z,61.82
2023-12-17T23:08:55.780Z,61.78
2023-12-17T23:11:24.757Z,61.93
2023-12-17T23:14:00.916Z,61.46
2023-12-17T23:16:30.626Z,61.53
2023-12-17T23:18:58.933Z,61.56
2023-12-17T23:21:30.028Z,61.43
2023-12-17T23:24:01.938Z,61.28
2023-12-17T23:26:30.305Z,61.50
2023-12-17T23:29:01.624Z,61.52
2023-12-17T23:31:40.218Z,61.46
2023-12-17T23:34:11.640Z,61.24
2023-12-17T23:36:43.119Z,61.14
2023-12-17T23:39:11.430Z,61.17
2023-12-17T23:41:42.911Z,61.11
2023-12-17T23:44:14.253Z,61.05
2023-12-17T23:46:49.670Z,61.11
2023-12-17T23:49:18.027Z,61.06
2023-12-17T23:51:48.836Z,61.32
2023-12-17T23:54:19.913Z,61.15
2023-12-17T23:56:54.049Z,61.13
2023-12-17T23:59:25.624Z,60.97
